createdAt,value
2023-07-08T00:00:23.821Z,100843.72
2023-07-08T00:01:01.508Z,100841.16
2023-07-08T00:01:35.252Z,100842.00
2023-07-08T00:02:13.076Z,100845.69
2023-07-08T00:02:46.678Z,100845.06
2023-07-08T00:03:21.924Z,100838.81
2023-07-08T00:03:55.442Z,100837.97
2023-07-08T00:04:28.949Z,100838.31
2023-07-08T00:05:02.775Z,100835.88
2023-07-08T00:05:39.136Z,100828.78
2023-07-08T00:06:20.954Z,100834.38
2023-07-08T00:07:00.322Z,100837.56
2023-07-08T00:07:33.671Z,100833.13
2023-07-08T00:08:16.048Z,100831.44
2023-07-08T00:08:50.044Z,100835.22
2023-07-08T00:09:23.362Z,100835.09
2023-07-08T00:09:56.696Z,100831.69
2023-07-08T00:10:30.709Z,100829.84
2023-07-08T00:11:12.072Z,100838.75
2023-07-08T00:11:45.439Z,100837.06
2023-07-08T00:12:21.802Z,100839.81
2023-07-08T00:12:58.766Z,100837.28
2023-07-08T00:13:34.745Z,100837.28
2023-07-08T00:14:08.147Z,100833.81
2023-07-08T00:14:41.673Z,100834.03
2023-07-08T00:15:15.346Z,100839.41
2023-07-08T00:15:49.867Z,100837.72
2023-07-08T00:16:25.532Z,100835.97
2023-07-08T00:17:01.793Z,100839.63
2023-07-08T00:17:35.248Z,100832.78
2023-07-08T00:18:20.088Z,100832.78
2023-07-08T00:18:53.385Z,100844.63
2023-07-08T00:19:26.760Z,100841.81
2023-07-08T00:20:02.521Z,100840.13
2023-07-08T00:20:51.260Z,100844.97
2023-07-08T00:21:27.602Z,100843.25
2023-07-08T00:22:02.267Z,100846.91
2023-07-08T00:22:37.341Z,100846.19
2023-07-08T00:23:11.506Z,100843.72
2023-07-08T00:23:47.415Z,100846.41
2023-07-08T00:24:20.857Z,100844.69
2023-07-08T00:24:55.579Z,100841.25
2023-07-08T00:25:30.306Z,100839.31
2023-07-08T00:26:11.486Z,100842.22
2023-07-08T00:26:45.234Z,100843.19
2023-07-08T00:27:22.207Z,100843.41
2023-07-08T00:27:56.100Z,100841.72
2023-07-08T00:28:29.487Z,100840.00
2023-07-08T00:29:04.374Z,100838.28
2023-07-08T00:29:38.011Z,100840.00
2023-07-08T00:30:31.963Z,100841.84
2023-07-08T00:31:11.634Z,100838.28
2023-07-08T00:31:45.015Z,100842.81
2023-07-08T00:32:18.338Z,100831.44
2023-07-08T00:32:56.215Z,100836.03
2023-07-08T00:33:30.400Z,100834.56
2023-07-08T00:34:04.343Z,100832.00
2023-07-08T00:34:37.665Z,100832.13
2023-07-08T00:35:11.702Z,100835.53
2023-07-08T00:35:46.772Z,100826.50
2023-07-08T00:36:20.667Z,100830.81
2023-07-08T00:36:54.076Z,100828.47
2023-07-08T00:37:30.836Z,100833.81
2023-07-08T00:38:16.087Z,100832.13
2023-07-08T00:38:49.626Z,100833.19
2023-07-08T00:39:26.207Z,100839.66
2023-07-08T00:40:02.887Z,100831.09
2023-07-08T00:40:36.673Z,100831.94
2023-07-08T00:41:25.261Z,100831.94
2023-07-08T00:42:02.843Z,100831.09
2023-07-08T00:42:36.375Z,100825.72
2023-07-08T00:43:10.760Z,100831.31
2023-07-08T00:43:51.594Z,100832.28
2023-07-08T00:44:25.695Z,100829.81
2023-07-08T00:44:59.697Z,100827.47
2023-07-08T00:46:02.131Z,100831.22
2023-07-08T00:47:09.060Z,100828.78
2023-07-08T00:47:44.193Z,100831.53
2023-07-08T00:48:26.730Z,100831.66
2023-07-08T00:49:52.120Z,100833.72
2023-07-08T00:50:25.484Z,100827.72
2023-07-08T00:50:59.214Z,100834.81
2023-07-08T00:51:32.977Z,100829.63
2023-07-08T00:52:30.229Z,100826.94
2023-07-08T00:53:32.543Z,100827.91
2023-07-08T00:54:23.849Z,100828.34
2023-07-08T00:55:07.480Z,100824.91
2023-07-08T00:55:40.904Z,100830.28
2023-07-08T00:56:26.229Z,100827.81
2023-07-08T00:57:04.077Z,100833.28
2023-07-08T00:57:45.710Z,100832.44
2023-07-08T00:58:21.973Z,100826.09
2023-07-08T00:59:19.007Z,100823.66
2023-07-08T01:00:13.829Z,100823.66
2023-07-08T01:00:47.190Z,100836.09
2023-07-08T01:01:21.204Z,100831.78
2023-07-08T01:01:58.298Z,100830.09
2023-07-08T01:02:37.309Z,100831.91
2023-07-08T01:03:11.994Z,100827.53
2023-07-08T01:04:05.018Z,100827.72
2023-07-08T01:05:02.322Z,100821.97
2023-07-08T01:05:39.728Z,100827.19
2023-07-08T01:06:14.113Z,100829.69
2023-07-08T01:06:58.290Z,100820.88
2023-07-08T01:07:34.367Z,100825.38
2023-07-08T01:08:10.587Z,100825.50
2023-07-08T01:08:44.270Z,100823.03
2023-07-08T01:09:18.918Z,100825.06
2023-07-08T01:10:17.848Z,100828.81
2023-07-08T01:10:56.886Z,100825.16
2023-07-08T01:11:32.935Z,100822.50
2023-07-08T01:12:14.187Z,100828.81
2023-07-08T01:12:52.614Z,100828.91
2023-07-08T01:13:26.472Z,100826.47
2023-07-08T01:14:04.768Z,100831.91
2023-07-08T01:14:43.449Z,100839.00
2023-07-08T01:15:17.313Z,100830.97
2023-07-08T01:15:53.403Z,100831.91
2023-07-08T01:16:27.175Z,100825.63
2023-07-08T01:17:00.646Z,100830.09
2023-07-08T01:17:34.217Z,100828.38
2023-07-08T01:18:11.190Z,100831.19
2023-07-08T01:18:53.885Z,100829.69
2023-07-08T01:19:35.456Z,100828.81
2023-07-08T01:20:16.162Z,100826.25
2023-07-08T01:20:49.728Z,100828.16
2023-07-08T01:21:40.601Z,100830.13
2023-07-08T01:22:13.914Z,100828.38
2023-07-08T01:22:47.235Z,100830.31
2023-07-08T01:23:20.758Z,100833.00
2023-07-08T01:23:54.228Z,100826.97
2023-07-08T01:24:31.106Z,100832.47
2023-07-08T01:25:06.030Z,100823.44
2023-07-08T01:25:39.998Z,100836.66
2023-07-08T01:26:13.691Z,100833.72
2023-07-08T01:26:48.041Z,100830.13
2023-07-08T01:27:22.537Z,100823.00
2023-07-08T01:27:58.103Z,100837.19
2023-07-08T01:28:32.487Z,100833.84
2023-07-08T01:29:08.466Z,100832.25
2023-07-08T01:29:42.127Z,100832.25
2023-07-08T01:30:17.530Z,100835.88
2023-07-08T01:30:52.090Z,100831.28
2023-07-08T01:31:26.181Z,100833.97
2023-07-08T01:32:03.958Z,100835.03
2023-07-08T01:32:45.201Z,100842.97
2023-07-08T01:33:25.989Z,100835.88
2023-07-08T01:33:59.527Z,100836.84
2023-07-08T01:34:34.937Z,100836.72
2023-07-08T01:35:14.458Z,100841.25
2023-07-08T01:35:50.811Z,100832.25
2023-07-08T01:36:26.606Z,100839.53
2023-07-08T01:37:04.058Z,100837.81
2023-07-08T01:37:48.025Z,100836.97
2023-07-08T01:38:27.653Z,100836.13
2023-07-08T01:39:01.051Z,100836.13
2023-07-08T01:39:34.715Z,100838.03
2023-07-08T01:40:32.353Z,100844.22
2023-07-08T01:41:05.658Z,100836.31
2023-07-08T01:41:38.969Z,100830.94
2023-07-08T01:42:12.274Z,100838.03
2023-07-08T01:42:45.894Z,100843.38
2023-07-08T01:43:19.229Z,100838.25
2023-07-08T01:43:52.778Z,100834.59
2023-07-08T01:44:37.357Z,100832.91
2023-07-08T01:45:20.412Z,100830.31
2023-07-08T01:45:55.988Z,100831.38
2023-07-08T01:46:29.478Z,100832.31
2023-07-08T01:47:21.801Z,100826.44
2023-07-08T01:48:20.105Z,100836.94
2023-07-08T01:48:58.259Z,100829.88
2023-07-08T01:49:37.185Z,100838.88
2023-07-08T01:50:12.800Z,100826.44
2023-07-08T01:50:59.341Z,100830.09
2023-07-08T01:51:33.307Z,100823.00
2023-07-08T01:52:08.712Z,100828.56
2023-07-08T01:52:42.165Z,100830.28
2023-07-08T01:53:31.350Z,100827.50
2023-07-08T01:54:06.163Z,100828.56
2023-07-08T01:54:39.722Z,100824.91
2023-07-08T01:55:13.228Z,100825.91
2023-07-08T01:55:46.607Z,100828.56
2023-07-08T01:56:20.093Z,100832.03
2023-07-08T01:56:59.045Z,100827.50
2023-07-08T01:57:33.395Z,100830.28
2023-07-08T01:58:07.018Z,100822.25
2023-07-08T01:58:43.762Z,100825.16
2023-07-08T01:59:17.194Z,100823.44
2023-07-08T01:59:51.363Z,100823.44
2023-07-08T02:00:25.032Z,100826.19
2023-07-08T02:01:00.117Z,100823.59
2023-07-08T02:01:33.865Z,100827.47
2023-07-08T02:02:07.288Z,100824.03
2023-07-08T02:02:40.733Z,100824.25
2023-07-08T02:03:14.130Z,100816.19
2023-07-08T02:03:47.906Z,100815.44
2023-07-08T02:04:22.638Z,100822.72
2023-07-08T02:04:56.037Z,100816.53
2023-07-08T02:05:29.516Z,100823.69
2023-07-08T02:06:04.732Z,100816.53
2023-07-08T02:06:38.219Z,100815.66
2023-07-08T02:07:16.363Z,100821.88
2023-07-08T02:07:55.661Z,100819.31
2023-07-08T02:08:29.380Z,100821.22
2023-07-08T02:09:03.938Z,100824.00
2023-07-08T02:09:37.339Z,100821.22
2023-07-08T02:10:11.229Z,100829.13
2023-07-08T02:10:50.915Z,100823.91
2023-07-08T02:11:24.373Z,100823.91
2023-07-08T02:11:58.183Z,100826.56
2023-07-08T02:12:31.591Z,100823.91
2023-07-08T02:13:05.152Z,100824.00
2023-07-08T02:13:41.480Z,100826.75
2023-07-08T02:14:14.985Z,100827.00
2023-07-08T02:14:48.429Z,100821.84
2023-07-08T02:15:21.847Z,100823.78
2023-07-08T02:15:56.158Z,100825.69
2023-07-08T02:16:29.788Z,100824.81
2023-07-08T02:17:06.935Z,100828.56
2023-07-08T02:17:40.338Z,100825.69
2023-07-08T02:18:13.733Z,100825.91
2023-07-08T02:18:48.546Z,100822.25
2023-07-08T02:19:23.310Z,100828.34
2023-07-08T02:19:57.711Z,100827.38
2023-07-08T02:20:31.091Z,100828.34
2023-07-08T02:21:04.807Z,100819.47
2023-07-08T02:21:38.597Z,100822.03
2023-07-08T02:22:12.109Z,100828.28
2023-07-08T02:22:45.483Z,100825.47
2023-07-08T02:23:19.388Z,100830.84
2023-07-08T02:23:54.654Z,100827.38
2023-07-08T02:24:28.160Z,100825.59
2023-07-08T02:25:01.529Z,100827.19
2023-07-08T02:25:34.910Z,100825.69
2023-07-08T02:26:08.578Z,100824.81
2023-07-08T02:26:44.793Z,100824.72
2023-07-08T02:27:18.233Z,100833.72
2023-07-08T02:27:55.854Z,100827.81
2023-07-08T02:28:29.334Z,100830.59
2023-07-08T02:29:03.941Z,100829.81
2023-07-08T02:29:39.350Z,100820.94
2023-07-08T02:30:12.780Z,100831.63
2023-07-08T02:30:47.488Z,100825.44
2023-07-08T02:31:22.266Z,100831.84
2023-07-08T02:31:56.709Z,100825.75
2023-07-08T02:32:35.663Z,100831.84
2023-07-08T02:33:11.047Z,100835.28
2023-07-08T02:33:44.648Z,100831.63
2023-07-08T02:34:19.370Z,100834.31
2023-07-08T02:34:53.337Z,100831.84
2023-07-08T02:35:31.882Z,100834.50
2023-07-08T02:36:05.445Z,100836.34
2023-07-08T02:36:39.900Z,100839.13
2023-07-08T02:37:15.957Z,100835.47
2023-07-08T02:37:49.326Z,100830.13
2023-07-08T02:38:22.746Z,100831.09
2023-07-08T02:38:57.182Z,100833.56
2023-07-08T02:39:30.676Z,100836.03
2023-07-08T02:40:04.882Z,100822.66
2023-07-08T02:40:38.405Z,100832.72
2023-07-08T02:41:12.768Z,100836.13
2023-07-08T02:41:46.137Z,100832.59
2023-07-08T02:42:19.442Z,100831.84
2023-07-08T02:42:52.954Z,100832.72
2023-07-08T02:43:26.462Z,100838.16
2023-07-08T02:43:59.806Z,100826.59
2023-07-08T02:44:33.212Z,100827.69
2023-07-08T02:45:07.655Z,100833.03
2023-07-08T02:45:46.897Z,100833.97
2023-07-08T02:46:23.141Z,100828.84
2023-07-08T02:46:57.491Z,100827.09
2023-07-08T02:47:30.973Z,100834.19
2023-07-08T02:48:04.482Z,100832.44
2023-07-08T02:48:42.080Z,100833.63
2023-07-08T02:49:15.597Z,100833.53
2023-07-08T02:49:49.046Z,100843.38
2023-07-08T02:50:22.652Z,100834.56
2023-07-08T02:51:04.126Z,100832.84
2023-07-08T02:51:37.689Z,100839.16
2023-07-08T02:52:11.302Z,100832.31
2023-07-08T02:52:44.698Z,100830.38
2023-07-08T02:53:18.205Z,100834.97
2023-07-08T02:53:51.901Z,100833.28
2023-07-08T02:54:25.246Z,100831.44
2023-07-08T02:54:58.585Z,100834.97
2023-07-08T02:55:32.085Z,100836.69
2023-07-08T02:56:05.520Z,100836.69
2023-07-08T02:56:38.917Z,100836.69
2023-07-08T02:57:12.342Z,100837.75
2023-07-08T02:57:45.797Z,100840.31
2023-07-08T02:58:19.159Z,100836.69
2023-07-08T02:58:52.517Z,100847.38
2023-07-08T02:59:25.952Z,100840.31
2023-07-08T02:59:59.280Z,100842.25
2023-07-08T03:00:32.671Z,100840.53
2023-07-08T03:01:43.898Z,100836.91
2023-07-08T03:02:17.576Z,100842.44
2023-07-08T03:02:51.067Z,100839.78
2023-07-08T03:03:24.420Z,100840.94
2023-07-08T03:04:01.719Z,100838.16
2023-07-08T03:04:40.882Z,100843.50
2023-07-08T03:05:14.320Z,100842.63
2023-07-08T03:06:00.302Z,100846.28
2023-07-08T03:06:34.221Z,100843.59
2023-07-08T03:07:13.137Z,100840.75
2023-07-08T03:07:46.458Z,100844.34
2023-07-08T03:08:19.912Z,100848.75
2023-07-08T03:08:53.281Z,100839.22
2023-07-08T03:09:27.661Z,100844.47
2023-07-08T03:10:01.115Z,100840.94
2023-07-08T03:10:34.562Z,100848.75
2023-07-08T03:11:09.564Z,100849.69
2023-07-08T03:11:43.104Z,100848.75
2023-07-08T03:12:16.413Z,100848.00
2023-07-08T03:12:49.790Z,100840.94
2023-07-08T03:13:23.701Z,100848.00
2023-07-08T03:13:58.402Z,100845.44
2023-07-08T03:14:31.970Z,100849.13
2023-07-08T03:15:06.785Z,100847.31
2023-07-08T03:15:40.110Z,100847.44
2023-07-08T03:16:14.246Z,100847.53
2023-07-08T03:16:47.807Z,100850.88
2023-07-08T03:17:23.957Z,100851.81
2023-07-08T03:17:58.970Z,100849.06
2023-07-08T03:18:32.457Z,100850.78
2023-07-08T03:19:06.882Z,100853.34
2023-07-08T03:19:40.257Z,100849.69
2023-07-08T03:20:13.897Z,100844.28
2023-07-08T03:20:49.843Z,100851.44
2023-07-08T03:21:24.455Z,100851.44
2023-07-08T03:21:58.854Z,100853.16
2023-07-08T03:22:32.258Z,100848.00
2023-07-08T03:23:05.653Z,100853.16
2023-07-08T03:23:40.427Z,100847.81
2023-07-08T03:24:18.077Z,100853.16
2023-07-08T03:24:52.416Z,100849.69
2023-07-08T03:25:28.152Z,100855.81
2023-07-08T03:26:02.271Z,100855.94
2023-07-08T03:26:35.898Z,100853.34
2023-07-08T03:27:09.357Z,100856.78
2023-07-08T03:27:44.902Z,100850.78
2023-07-08T03:28:18.683Z,100853.56
2023-07-08T03:28:52.646Z,100855.28
2023-07-08T03:29:27.148Z,100860.81
2023-07-08T03:30:00.580Z,100853.63
2023-07-08T03:30:35.349Z,100853.56
2023-07-08T03:31:11.406Z,100852.03
2023-07-08T03:31:46.751Z,100848.94
2023-07-08T03:32:20.982Z,100849.69
2023-07-08T03:32:56.298Z,100861.91
2023-07-08T03:33:30.246Z,100853.16
2023-07-08T03:34:03.761Z,100859.53
2023-07-08T03:34:37.656Z,100855.03
2023-07-08T03:35:11.129Z,100856.13
2023-07-08T03:35:44.637Z,100858.69
2023-07-08T03:36:25.874Z,100857.66
2023-07-08T03:37:00.882Z,100861.19
2023-07-08T03:37:34.314Z,100862.78
2023-07-08T03:38:07.887Z,100861.72
2023-07-08T03:38:41.791Z,100868.03
2023-07-08T03:39:18.989Z,100861.91
2023-07-08T03:39:52.298Z,100862.47
2023-07-08T03:40:25.727Z,100860.47
2023-07-08T03:41:00.364Z,100866.91
2023-07-08T03:41:34.281Z,100860.56
2023-07-08T03:42:07.908Z,100863.44
2023-07-08T03:42:44.416Z,100865.16
2023-07-08T03:43:17.831Z,100859.06
2023-07-08T03:43:54.479Z,100868.59
2023-07-08T03:44:28.212Z,100870.44
2023-07-08T03:45:01.665Z,100862.47
2023-07-08T03:45:35.371Z,100861.72
2023-07-08T03:46:13.504Z,100872.44
2023-07-08T03:46:53.286Z,100868.13
2023-07-08T03:47:27.487Z,100861.91
2023-07-08T03:48:01.071Z,100874.38
2023-07-08T03:48:34.559Z,100865.44
2023-07-08T03:49:09.406Z,100872.44
2023-07-08T03:49:42.788Z,100873.09
2023-07-08T03:50:25.547Z,100873.75
2023-07-08T03:50:59.704Z,100864.78
2023-07-08T03:51:39.576Z,100870.13
2023-07-08T03:52:17.476Z,100876.53
2023-07-08T03:52:55.337Z,100877.38
2023-07-08T03:53:30.866Z,100873.97
2023-07-08T03:54:06.006Z,100872.25
2023-07-08T03:54:42.778Z,100866.91
2023-07-08T03:55:16.640Z,100870.50
2023-07-08T03:55:50.351Z,100874.13
2023-07-08T03:56:23.985Z,100866.91
2023-07-08T03:56:57.426Z,100870.50
2023-07-08T03:57:32.920Z,100870.19
2023-07-08T03:58:06.543Z,100874.81
2023-07-08T03:58:45.071Z,100870.72
2023-07-08T03:59:20.319Z,100867.09
2023-07-08T03:59:54.337Z,100866.91
2023-07-08T04:00:27.827Z,100870.31
2023-07-08T04:01:02.897Z,100868.41
2023-07-08T04:01:37.222Z,100866.47
2023-07-08T04:02:12.920Z,100862.75
2023-07-08T04:02:47.842Z,100864.56
2023-07-08T04:03:26.640Z,100868.75
2023-07-08T04:04:01.735Z,100878.28
2023-07-08T04:04:36.533Z,100869.53
2023-07-08T04:05:19.337Z,100864.38
2023-07-08T04:05:52.698Z,100863.69
2023-07-08T04:06:27.716Z,100866.06
2023-07-08T04:07:01.947Z,100869.72
2023-07-08T04:07:36.745Z,100871.44
2023-07-08T04:08:10.058Z,100870.69
2023-07-08T04:08:43.646Z,100863.63
2023-07-08T04:09:17.425Z,100866.19
2023-07-08T04:09:51.580Z,100872.19
2023-07-08T04:10:24.953Z,100866.44
2023-07-08T04:10:58.517Z,100866.34
2023-07-08T04:11:32.262Z,100868.25
2023-07-08T04:12:06.295Z,100872.56
2023-07-08T04:12:41.133Z,100875.31
2023-07-08T04:13:14.443Z,100869.31
2023-07-08T04:13:48.180Z,100869.31
2023-07-08T04:14:21.670Z,100865.88
2023-07-08T04:14:55.042Z,100873.16
2023-07-08T04:15:29.632Z,100866.28
2023-07-08T04:16:08.278Z,100875.91
2023-07-08T04:16:49.532Z,100874.88
2023-07-08T04:17:24.470Z,100878.28
2023-07-08T04:17:58.591Z,100878.28
2023-07-08T04:18:32.834Z,100877.06
2023-07-08T04:19:14.126Z,100878.78
2023-07-08T04:19:47.568Z,100878.66
2023-07-08T04:20:21.253Z,100877.31
2023-07-08T04:21:31.531Z,100879.00
2023-07-08T04:22:06.912Z,100879.69
2023-07-08T04:22:40.248Z,100876.69
2023-07-08T04:23:13.590Z,100872.94
2023-07-08T04:23:46.997Z,100879.06
2023-07-08T04:24:20.407Z,100877.25
2023-07-08T04:24:53.730Z,100876.28
2023-07-08T04:25:29.130Z,100883.16
2023-07-08T04:26:03.484Z,100877.38
2023-07-08T04:26:37.062Z,100876.03
2023-07-08T04:27:19.607Z,100880.00
2023-07-08T04:28:00.213Z,100878.19
2023-07-08T04:28:34.638Z,100878.75
2023-07-08T04:29:20.664Z,100883.56
2023-07-08T04:29:53.962Z,100876.91
2023-07-08T04:30:27.682Z,100885.63
2023-07-08T04:31:01.862Z,100887.13
2023-07-08T04:31:35.496Z,100881.34
2023-07-08T04:32:09.382Z,100883.28
2023-07-08T04:32:44.486Z,100884.31
2023-07-08T04:33:18.501Z,100881.34
2023-07-08T04:33:51.916Z,100881.34
2023-07-08T04:34:25.292Z,100882.09
2023-07-08T04:34:58.717Z,100878.97
2023-07-08T04:35:32.157Z,100880.50
2023-07-08T04:36:11.926Z,100874.06
2023-07-08T04:36:45.957Z,100875.91
2023-07-08T04:37:22.934Z,100875.00
2023-07-08T04:37:56.372Z,100879.63
2023-07-08T04:38:29.827Z,100877.47
2023-07-08T04:39:07.121Z,100885.00
2023-07-08T04:39:40.413Z,100875.97
2023-07-08T04:40:20.576Z,100881.16
2023-07-08T04:40:55.502Z,100878.13
2023-07-08T04:41:29.126Z,100877.03
2023-07-08T04:42:03.310Z,100875.34
2023-07-08T04:42:38.693Z,100876.31
2023-07-08T04:43:13.093Z,100877.03
2023-07-08T04:43:46.474Z,100875.97
2023-07-08T04:44:20.781Z,100876.63
2023-07-08T04:44:54.399Z,100879.00
2023-07-08T04:45:27.776Z,100870.66
2023-07-08T04:46:02.436Z,100868.69
2023-07-08T04:46:43.923Z,100868.47
2023-07-08T04:47:17.472Z,100866.53
2023-07-08T04:47:53.712Z,100876.28
2023-07-08T04:48:28.847Z,100880.28
2023-07-08T04:49:04.382Z,100869.97
2023-07-08T04:49:37.810Z,100872.53
2023-07-08T04:50:12.541Z,100877.69
2023-07-08T04:50:49.400Z,100872.94
2023-07-08T04:51:22.902Z,100884.31
2023-07-08T04:51:56.331Z,100877.13
2023-07-08T04:52:29.708Z,100876.16
2023-07-08T04:53:03.990Z,100882.41
2023-07-08T04:53:37.388Z,100888.38
2023-07-08T04:54:11.637Z,100881.09
2023-07-08T04:54:45.035Z,100879.13
2023-07-08T04:55:20.178Z,100882.59
2023-07-08T04:55:57.456Z,100887.97
2023-07-08T04:56:50.217Z,100881.94
2023-07-08T04:57:23.753Z,100886.22
2023-07-08T04:57:57.120Z,100888.56
2023-07-08T04:58:30.435Z,100888.81
2023-07-08T04:59:05.349Z,100887.97
2023-07-08T04:59:38.851Z,100886.97
2023-07-08T05:00:18.333Z,100885.03
2023-07-08T05:00:52.012Z,100886.66
2023-07-08T05:01:25.435Z,100886.53
2023-07-08T05:01:58.907Z,100889.66
2023-07-08T05:02:32.351Z,100887.72
2023-07-08T05:03:06.025Z,100883.19
2023-07-08T05:03:39.502Z,100891.16
2023-07-08T05:04:16.667Z,100889.22
2023-07-08T05:04:50.084Z,100889.22
2023-07-08T05:05:23.631Z,100892.88
2023-07-08T05:05:57.028Z,100889.22
2023-07-08T05:06:30.364Z,100894.56
2023-07-08T05:07:04.795Z,100897.78
2023-07-08T05:07:38.187Z,100893.16
2023-07-08T05:08:13.461Z,100897.78
2023-07-08T05:08:46.948Z,100897.34
2023-07-08T05:09:20.347Z,100900.25
2023-07-08T05:09:57.281Z,100891.97
2023-07-08T05:10:31.108Z,100893.69
2023-07-08T05:11:05.740Z,100893.56
2023-07-08T05:11:39.488Z,100888.53
2023-07-08T05:12:12.939Z,100887.69
2023-07-08T05:12:48.424Z,100888.53
2023-07-08T05:13:22.057Z,100890.03
2023-07-08T05:13:56.121Z,100895.41
2023-07-08T05:14:32.354Z,100897.09
2023-07-08T05:15:07.986Z,100891.53
2023-07-08T05:15:41.715Z,100896.69
2023-07-08T05:16:15.454Z,100894.72
2023-07-08T05:16:49.113Z,100891.06
2023-07-08T05:17:22.478Z,100897.91
2023-07-08T05:17:55.921Z,100896.00
2023-07-08T05:18:29.360Z,100895.75
2023-07-08T05:19:02.906Z,100895.53
2023-07-08T05:19:37.495Z,100893.81
2023-07-08T05:20:15.694Z,100896.25
2023-07-08T05:20:55.540Z,100896.16
2023-07-08T05:21:34.461Z,100900.44
2023-07-08T05:22:07.903Z,100901.41
2023-07-08T05:22:43.873Z,100903.88
2023-07-08T05:23:18.966Z,100900.22
2023-07-08T05:23:52.538Z,100902.81
2023-07-08T05:24:25.889Z,100901.91
2023-07-08T05:24:59.331Z,100907.09
2023-07-08T05:25:34.400Z,100905.28
2023-07-08T05:26:08.954Z,100905.41
2023-07-08T05:26:42.390Z,100906.25
2023-07-08T05:27:16.277Z,100907.09
2023-07-08T05:27:49.862Z,100902.47
2023-07-08T05:28:25.095Z,100902.38
2023-07-08T05:28:58.513Z,100910.09
2023-07-08T05:29:31.898Z,100908.88
2023-07-08T05:30:08.173Z,100907.78
2023-07-08T05:30:42.964Z,100911.81
2023-07-08T05:31:16.380Z,100912.31
2023-07-08T05:31:49.841Z,100915.78
2023-07-08T05:32:23.812Z,100909.28
2023-07-08T05:32:57.281Z,100906.50
2023-07-08T05:33:33.063Z,100911.41
2023-07-08T05:34:06.720Z,100907.50
2023-07-08T05:34:40.064Z,100909.00
2023-07-08T05:35:13.485Z,100914.16
2023-07-08T05:35:47.309Z,100907.44
2023-07-08T05:36:20.635Z,100915.88
2023-07-08T05:36:54.039Z,100912.97
2023-07-08T05:37:30.509Z,100907.84
2023-07-08T05:38:03.896Z,100906.63
2023-07-08T05:38:38.392Z,100907.88
2023-07-08T05:39:11.922Z,100909.97
2023-07-08T05:39:45.451Z,100912.53
2023-07-08T05:40:18.987Z,100910.13
2023-07-08T05:40:56.591Z,100914.50
2023-07-08T05:41:29.990Z,100922.34
2023-07-08T05:42:04.028Z,100914.53
2023-07-08T05:42:38.452Z,100915.75
2023-07-08T05:43:13.176Z,100905.47
2023-07-08T05:43:47.777Z,100907.41
2023-07-08T05:44:21.617Z,100917.44
2023-07-08T05:44:55.972Z,100913.28
2023-07-08T05:45:29.322Z,100919.88
2023-07-08T05:46:11.301Z,100908.66
2023-07-08T05:46:45.920Z,100913.53
2023-07-08T05:47:19.436Z,100910.31
2023-07-08T05:47:52.799Z,100912.25
2023-07-08T05:48:26.733Z,100906.38
2023-07-08T05:49:01.919Z,100912.94
2023-07-08T05:49:35.827Z,100917.84
2023-07-08T05:50:09.925Z,100912.47
2023-07-08T05:50:43.415Z,100920.72
2023-07-08T05:51:16.761Z,100919.03
2023-07-08T05:51:50.219Z,100918.53
2023-07-08T05:52:23.647Z,100914.56
2023-07-08T05:52:56.985Z,100919.31
2023-07-08T05:53:30.856Z,100922.63
2023-07-08T05:54:04.361Z,100919.44
2023-07-08T05:54:41.562Z,100921.63
2023-07-08T05:55:17.920Z,100921.94
2023-07-08T05:55:51.724Z,100915.16
2023-07-08T05:56:25.149Z,100923.22
2023-07-08T05:56:58.581Z,100924.66
2023-07-08T05:57:34.696Z,100924.38
2023-07-08T05:58:18.409Z,100930.69
2023-07-08T05:58:55.706Z,100920.19
2023-07-08T05:59:29.107Z,100914.84
2023-07-08T06:00:02.499Z,100923.22
2023-07-08T06:00:45.757Z,100919.28
2023-07-08T06:01:19.332Z,100921.72
2023-07-08T06:01:52.915Z,100923.16
2023-07-08T06:02:27.156Z,100917.75
2023-07-08T06:03:03.690Z,100928.34
2023-07-08T06:03:41.610Z,100923.44
2023-07-08T06:04:15.191Z,100921.09
2023-07-08T06:04:48.758Z,100923.16
2023-07-08T06:05:22.347Z,100924.66
2023-07-08T06:05:55.840Z,100924.25
2023-07-08T06:06:29.611Z,100924.66
2023-07-08T06:07:04.501Z,100925.78
2023-07-08T06:07:37.969Z,100920.13
2023-07-08T06:08:11.316Z,100922.97
2023-07-08T06:08:44.805Z,100928.78
2023-07-08T06:09:18.215Z,100921.53
2023-07-08T06:09:52.339Z,100917.44
2023-07-08T06:10:25.715Z,100920.13
2023-07-08T06:10:59.242Z,100925.53
2023-07-08T06:11:33.390Z,100932.94
2023-07-08T06:12:08.203Z,100927.78
2023-07-08T06:12:41.626Z,100928.91
2023-07-08T06:13:15.432Z,100925.78
2023-07-08T06:13:49.534Z,100924.69
2023-07-08T06:14:23.196Z,100926.25
2023-07-08T06:14:58.809Z,100925.28
2023-07-08T06:15:32.135Z,100923.00
2023-07-08T06:16:05.692Z,100919.47
2023-07-08T06:16:41.298Z,100922.03
2023-07-08T06:17:15.192Z,100922.47
2023-07-08T06:17:48.620Z,100917.78
2023-07-08T06:18:22.285Z,100917.50
2023-07-08T06:18:57.029Z,100913.69
2023-07-08T06:19:30.351Z,100919.69
2023-07-08T06:20:08.682Z,100923.94
2023-07-08T06:20:42.016Z,100918.69
2023-07-08T06:21:15.372Z,100921.97
2023-07-08T06:21:48.733Z,100919.81
2023-07-08T06:22:45.447Z,100922.81
2023-07-08T06:23:15.474Z,100922.50
2023-07-08T06:23:48.941Z,100925.66
2023-07-08T06:24:22.576Z,100926.22
2023-07-08T06:24:56.018Z,100933.63
2023-07-08T06:25:29.684Z,100932.22
2023-07-08T06:26:03.030Z,100928.53
2023-07-08T06:26:36.610Z,100927.94
2023-07-08T06:27:10.479Z,100928.97
2023-07-08T06:27:43.847Z,100929.41
2023-07-08T06:28:17.578Z,100929.53
2023-07-08T06:28:51.262Z,100932.09
2023-07-08T06:29:25.810Z,100928.59
2023-07-08T06:29:59.229Z,100928.91
2023-07-08T06:30:32.869Z,100927.19
2023-07-08T06:31:06.254Z,100927.91
2023-07-08T06:31:39.787Z,100929.50
2023-07-08T06:32:14.885Z,100932.63
2023-07-08T06:32:48.282Z,100930.91
2023-07-08T06:33:21.628Z,100923.22
2023-07-08T06:33:57.942Z,100921.81
2023-07-08T06:34:31.476Z,100928.91
2023-07-08T06:35:05.316Z,100925.22
2023-07-08T06:35:39.720Z,100918.69
2023-07-08T06:36:13.539Z,100923.78
2023-07-08T06:36:47.040Z,100923.22
2023-07-08T06:37:20.409Z,100918.94
2023-07-08T06:37:53.836Z,100926.50
2023-07-08T06:38:27.214Z,100916.66
2023-07-08T06:39:00.795Z,100917.94
2023-07-08T06:39:34.266Z,100918.41
2023-07-08T06:40:09.873Z,100918.94
2023-07-08T06:40:43.236Z,100917.25
2023-07-08T06:41:16.641Z,100925.78
2023-07-08T06:41:50.120Z,100920.53
2023-07-08T06:42:24.783Z,100914.97
2023-07-08T06:43:07.342Z,100919.66
2023-07-08T06:44:02.148Z,100917.53
2023-07-08T06:44:39.125Z,100910.09
2023-07-08T06:45:12.607Z,100920.09
2023-07-08T06:45:46.113Z,100915.28
2023-07-08T06:46:20.237Z,100916.13
2023-07-08T06:46:54.068Z,100920.09
2023-07-08T06:47:27.506Z,100916.38
2023-07-08T06:48:01.000Z,100925.47